sensor_id;sensor_type;location;lat;lon;timestamp;P1;durP1;ratioP1;P2;durP2;ratioP2
71048;SDS011;58704;53.358;-6.238;2022-10-15T00:01:21;2.33;;;0.90;;
71048;SDS011;58704;53.358;-6.238;2022-10-15T00:03:47;4.43;;;1.50;;
71048;SDS011;58704;53.358;-6.238;2022-10-15T00:06:18;2.78;;;1.25;;
71048;SDS011;58704;53.358;-6.238;2022-10-15T00:08:44;3.85;;;1.45;;
71048;SDS011;58704;53.358;-6.238;2022-10-15T00:11:12;3.83;;;1.50;;
71048;SDS011;58704;53.358;-6.238;2022-10-15T00:13:40;6.43;;;1.83;;
71048;SDS011;58704;53.358;-6.238;2022-10-15T00:16:07;5.28;;;1.50;;
71048;SDS011;58704;53.358;-6.238;2022-10-15T00:18:34;5.63;;;3.40;;
71048;SDS011;58704;53.358;-6.238;2022-10-15T00:20:59;6.17;;;2.40;;
71048;SDS011;58704;53.358;-6.238;2022-10-15T00:23:25;7.47;;;3.15;;
71048;SDS011;58704;53.358;-6.238;2022-10-15T00:25:59;4.80;;;1.97;;
71048;SDS011;58704;53.358;-6.238;2022-10-15T00:28:29;4.90;;;1.70;;
71048;SDS011;58704;53.358;-6.238;2022-10-15T00:30:58;4.60;;;1.33;;
71048;SDS011;58704;53.358;-6.238;2022-10-15T00:33:27;4.00;;;1.63;;
71048;SDS011;58704;53.358;-6.238;2022-10-15T00:35:59;4.17;;;1.43;;
71048;SDS011;58704;53.358;-6.238;2022-10-15T00:38:29;12.02;;;1.63;;
71048;SDS011;58704;53.358;-6.238;2022-10-15T00:40:55;3.83;;;1.20;;
71048;SDS011;58704;53.358;-6.238;2022-10-15T00:49:14;5.18;;;1.77;;
71048;SDS011;58704;53.358;-6.238;2022-10-15T00:51:54;8.27;;;1.65;;
71048;SDS011;58704;53.358;-6.238;2022-10-15T00:54:40;6.45;;;1.70;;
71048;SDS011;58704;53.358;-6.238;2022-10-15T00:57:07;7.20;;;1.60;;
71048;SDS011;58704;53.358;-6.238;2022-10-15T00:59:35;10.20;;;1.80;;
71048;SDS011;58704;53.358;-6.238;2022-10-15T01:02:03;6.82;;;1.30;;
71048;SDS011;58704;53.358;-6.238;2022-10-15T01:04:29;6.22;;;1.30;;
71048;SDS011;58704;53.358;-6.238;2022-10-15T01:06:54;3.67;;;1.17;;
71048;SDS011;58704;53.358;-6.238;2022-10-15T01:09:20;4.37;;;1.17;;
71048;SDS011;58704;53.358;-6.238;2022-10-15T01:11:46;5.78;;;1.40;;
71048;SDS011;58704;53.358;-6.238;2022-10-15T01:31:27;2.73;;;1.10;;
71048;SDS011;58704;53.358;-6.238;2022-10-15T01:34:00;2.38;;;1.13;;
71048;SDS011;58704;53.358;-6.238;2022-10-15T01:36:31;7.38;;;1.65;;
71048;SDS011;58704;53.358;-6.238;2022-10-15T01:39:08;5.97;;;1.80;;
71048;SDS011;58704;53.358;-6.238;2022-10-15T01:41:44;8.63;;;1.58;;
71048;SDS011;58704;53.358;-6.238;2022-10-15T01:44:19;6.50;;;1.40;;
71048;SDS011;58704;53.358;-6.238;2022-10-15T01:46:49;5.07;;;1.10;;
71048;SDS011;58704;53.358;-6.238;2022-10-15T01:49:20;7.13;;;2.08;;
71048;SDS011;58704;53.358;-6.238;2022-10-15T01:51:48;8.10;;;1.52;;
71048;SDS011;58704;53.358;-6.238;2022-10-15T01:54:15;5.70;;;1.27;;
71048;SDS011;58704;53.358;-6.238;2022-10-15T01:56:43;5.40;;;1.67;;
71048;SDS011;58704;53.358;-6.238;2022-10-15T01:59:14;5.40;;;1.55;;
71048;SDS011;58704;53.358;-6.238;2022-10-15T02:01:41;6.93;;;1.70;;
71048;SDS011;58704;53.358;-6.238;2022-10-15T02:18:09;8.15;;;1.77;;
71048;SDS011;58704;53.358;-6.238;2022-10-15T02:20:47;4.90;;;1.17;;
71048;SDS011;58704;53.358;-6.238;2022-10-15T02:23:17;5.20;;;1.40;;
71048;SDS011;58704;53.358;-6.238;2022-10-15T02:25:45;7.07;;;1.73;;
71048;SDS011;58704;53.358;-6.238;2022-10-15T02:28:11;4.43;;;1.40;;
71048;SDS011;58704;53.358;-6.238;2022-10-15T02:30:39;6.25;;;1.42;;
71048;SDS011;58704;53.358;-6.238;2022-10-15T02:33:06;5.90;;;1.20;;
71048;SDS011;58704;53.358;-6.238;2022-10-15T02:35:31;6.93;;;1.57;;
71048;SDS011;58704;53.358;-6.238;2022-10-15T02:37:57;10.20;;;2.28;;
71048;SDS011;58704;53.358;-6.238;2022-10-15T02:40:26;8.88;;;1.63;;
71048;SDS011;58704;53.358;-6.238;2022-10-15T02:42:53;7.03;;;1.33;;
71048;SDS011;58704;53.358;-6.238;2022-10-15T02:45:20;7.95;;;1.60;;
71048;SDS011;58704;53.358;-6.238;2022-10-15T02:47:45;10.10;;;1.52;;
71048;SDS011;58704;53.358;-6.238;2022-10-15T02:50:11;6.67;;;1.47;;
71048;SDS011;58704;53.358;-6.238;2022-10-15T02:52:36;6.60;;;1.90;;
71048;SDS011;58704;53.358;-6.238;2022-10-15T02:55:02;9.20;;;1.57;;
71048;SDS011;58704;53.358;-6.238;2022-10-15T02:57:27;9.33;;;1.87;;
71048;SDS011;58704;53.358;-6.238;2022-10-15T02:59:52;7.57;;;1.30;;
71048;SDS011;58704;53.358;-6.238;2022-10-15T03:02:18;5.67;;;1.20;;
71048;SDS011;58704;53.358;-6.238;2022-10-15T03:04:43;7.77;;;1.40;;
71048;SDS011;58704;53.358;-6.238;2022-10-15T03:07:09;7.07;;;1.55;;
71048;SDS011;58704;53.358;-6.238;2022-10-15T03:09:34;3.87;;;1.30;;
71048;SDS011;58704;53.358;-6.238;2022-10-15T03:12:00;6.77;;;1.30;;
71048;SDS011;58704;53.358;-6.238;2022-10-15T03:14:26;3.35;;;1.08;;
71048;SDS011;58704;53.358;-6.238;2022-10-15T03:16:51;2.80;;;1.00;;
71048;SDS011;58704;53.358;-6.238;2022-10-15T03:19:17;3.90;;;1.17;;
71048;SDS011;58704;53.358;-6.238;2022-10-15T03:21:42;2.50;;;0.97;;
71048;SDS011;58704;53.358;-6.238;2022-10-15T03:24:08;2.77;;;0.80;;
71048;SDS011;58704;53.358;-6.238;2022-10-15T03:26:34;1.38;;;0.70;;
71048;SDS011;58704;53.358;-6.238;2022-10-15T03:28:59;7.13;;;1.30;;
71048;SDS011;58704;53.358;-6.238;2022-10-15T03:31:25;4.03;;;1.10;;
71048;SDS011;58704;53.358;-6.238;2022-10-15T03:33:50;2.00;;;0.73;;
71048;SDS011;58704;53.358;-6.238;2022-10-15T03:36:15;3.22;;;0.80;;
71048;SDS011;58704;53.358;-6.238;2022-10-15T03:38:41;3.57;;;0.80;;
71048;SDS011;58704;53.358;-6.238;2022-10-15T03:41:06;1.37;;;0.90;;
71048;SDS011;58704;53.358;-6.238;2022-10-15T03:43:32;3.70;;;1.20;;
71048;SDS011;58704;53.358;-6.238;2022-10-15T03:46:00;4.17;;;1.20;;
71048;SDS011;58704;53.358;-6.238;2022-10-15T03:48:26;2.30;;;0.95;;
71048;SDS011;58704;53.358;-6.238;2022-10-15T03:50:52;1.43;;;0.63;;
71048;SDS011;58704;53.358;-6.238;2022-10-15T03:53:17;2.25;;;0.60;;
71048;SDS011;58704;53.358;-6.238;2022-10-15T03:55:42;1.70;;;1.07;;
71048;SDS011;58704;53.358;-6.238;2022-10-15T03:58:08;1.77;;;1.00;;
71048;SDS011;58704;53.358;-6.238;2022-10-15T04:00:33;1.90;;;0.60;;
71048;SDS011;58704;53.358;-6.238;2022-10-15T04:02:58;2.90;;;1.00;;
71048;SDS011;58704;53.358;-6.238;2022-10-15T04:05:24;1.38;;;0.60;;
71048;SDS011;58704;53.358;-6.238;2022-10-15T04:07:49;2.50;;;0.90;;
71048;SDS011;58704;53.358;-6.238;2022-10-15T04:10:15;1.00;;;0.70;;
71048;SDS011;58704;53.358;-6.238;2022-10-15T04:12:40;5.10;;;0.90;;
71048;SDS011;58704;53.358;-6.238;2022-10-15T04:15:06;1.60;;;0.80;;
71048;SDS011;58704;53.358;-6.238;2022-10-15T04:17:31;2.23;;;1.10;;
71048;SDS011;58704;53.358;-6.238;2022-10-15T04:19:57;1.48;;;0.60;;
71048;SDS011;58704;53.358;-6.238;2022-10-15T04:22:22;1.20;;;0.53;;
71048;SDS011;58704;53.358;-6.238;2022-10-15T04:24:47;0.60;;;0.60;;
71048;SDS011;58704;53.358;-6.238;2022-10-15T04:27:13;0.50;;;0.50;;
71048;SDS011;58704;53.358;-6.238;2022-10-15T04:29:38;0.73;;;0.73;;
71048;SDS011;58704;53.358;-6.238;2022-10-15T04:32:04;1.20;;;0.73;;
71048;SDS011;58704;53.358;-6.238;2022-10-15T04:34:29;1.37;;;0.70;;
71048;SDS011;58704;53.358;-6.238;2022-10-15T04:36:55;0.90;;;0.67;;
71048;SDS011;58704;53.358;-6.238;2022-10-15T04:39:20;1.60;;;0.70;;
71048;SDS011;58704;53.358;-6.238;2022-10-15T04:41:46;0.97;;;0.70;;
71048;SDS011;58704;53.358;-6.238;2022-10-15T04:44:11;1.23;;;0.70;;
71048;SDS011;58704;53.358;-6.238;2022-10-15T04:46:37;1.07;;;0.77;;
71048;SDS011;58704;53.358;-6.238;2022-10-15T04:49:02;0.82;;;0.60;;
71048;SDS011;58704;53.358;-6.238;2022-10-15T04:51:27;2.10;;;0.70;;
71048;SDS011;58704;53.358;-6.238;2022-10-15T04:53:53;1.50;;;0.77;;
71048;SDS011;58704;53.358;-6.238;2022-10-15T04:56:19;1.55;;;0.70;;
71048;SDS011;58704;53.358;-6.238;2022-10-15T04:58:46;0.70;;;0.70;;
71048;SDS011;58704;53.358;-6.238;2022-10-15T05:01:13;1.13;;;0.70;;
71048;SDS011;58704;53.358;-6.238;2022-10-15T05:03:41;0.95;;;0.52;;
71048;SDS011;58704;53.358;-6.238;2022-10-15T05:06:09;1.70;;;0.85;;
71048;SDS011;58704;53.358;-6.238;2022-10-15T05:08:35;2.85;;;0.50;;
71048;SDS011;58704;53.358;-6.238;2022-10-15T05:11:06;2.25;;;0.88;;
71048;SDS011;58704;53.358;-6.238;2022-10-15T05:13:34;0.60;;;0.57;;
71048;SDS011;58704;53.358;-6.238;2022-10-15T05:16:13;1.92;;;0.60;;
71048;SDS011;58704;53.358;-6.238;2022-10-15T05:18:45;4.65;;;0.90;;
71048;SDS011;58704;53.358;-6.238;2022-10-15T05:21:11;1.17;;;0.80;;
71048;SDS011;58704;53.358;-6.238;2022-10-15T05:23:36;3.63;;;1.03;;
71048;SDS011;58704;53.358;-6.238;2022-10-15T05:26:04;1.95;;;0.70;;
71048;SDS011;58704;53.358;-6.238;2022-10-15T05:28:31;3.05;;;0.70;;
71048;SDS011;58704;53.358;-6.238;2022-10-15T05:31:02;4.63;;;1.10;;
71048;SDS011;58704;53.358;-6.238;2022-10-15T05:33:28;1.95;;;0.80;;
71048;SDS011;58704;53.358;-6.238;2022-10-15T05:35:54;5.20;;;0.70;;
71048;SDS011;58704;53.358;-6.238;2022-10-15T05:38:19;1.73;;;0.80;;
71048;SDS011;58704;53.358;-6.238;2022-10-15T05:40:48;2.42;;;1.02;;
71048;SDS011;58704;53.358;-6.238;2022-10-15T05:43:14;7.13;;;0.90;;
71048;SDS011;58704;53.358;-6.238;2022-10-15T05:45:39;3.72;;;0.82;;
71048;SDS011;58704;53.358;-6.238;2022-10-15T05:48:05;3.93;;;0.80;;
71048;SDS011;58704;53.358;-6.238;2022-10-15T05:50:31;3.92;;;0.60;;
71048;SDS011;58704;53.358;-6.238;2022-10-15T05:52:56;2.03;;;0.83;;
71048;SDS011;58704;53.358;-6.238;2022-10-15T05:55:22;4.82;;;0.75;;
71048;SDS011;58704;53.358;-6.238;2022-10-15T05:57:47;3.87;;;1.00;;
71048;SDS011;58704;53.358;-6.238;2022-10-15T06:00:12;3.77;;;0.93;;
71048;SDS011;58704;53.358;-6.238;2022-10-15T06:02:38;5.03;;;0.82;;
71048;SDS011;58704;53.358;-6.238;2022-10-15T06:05:04;2.77;;;0.80;;
71048;SDS011;58704;53.358;-6.238;2022-10-15T06:07:30;4.20;;;1.10;;
71048;SDS011;58704;53.358;-6.238;2022-10-15T06:09:56;4.53;;;0.90;;
71048;SDS011;58704;53.358;-6.238;2022-10-15T06:12:21;1.88;;;0.80;;
71048;SDS011;58704;53.358;-6.238;2022-10-15T06:14:47;1.73;;;0.80;;
71048;SDS011;58704;53.358;-6.238;2022-10-15T06:17:12;2.40;;;0.90;;
71048;SDS011;58704;53.358;-6.238;2022-10-15T06:19:37;4.43;;;0.90;;
71048;SDS011;58704;53.358;-6.238;2022-10-15T06:22:03;5.68;;;0.95;;
71048;SDS011;58704;53.358;-6.238;2022-10-15T06:24:29;0.97;;;0.53;;
71048;SDS011;58704;53.358;-6.238;2022-10-15T06:26:54;4.40;;;0.97;;
71048;SDS011;58704;53.358;-6.238;2022-10-15T06:29:19;3.85;;;0.70;;
71048;SDS011;58704;53.358;-6.238;2022-10-15T06:31:45;4.70;;;1.30;;
71048;SDS011;58704;53.358;-6.238;2022-10-15T06:34:10;3.17;;;1.20;;
71048;SDS011;58704;53.358;-6.238;2022-10-15T06:36:36;2.75;;;1.10;;
71048;SDS011;58704;53.358;-6.238;2022-10-15T06:39:02;4.90;;;1.00;;
71048;SDS011;58704;53.358;-6.238;2022-10-15T06:41:28;5.93;;;1.10;;
71048;SDS011;58704;53.358;-6.238;2022-10-15T06:43:53;4.33;;;1.67;;
71048;SDS011;58704;53.358;-6.238;2022-10-15T06:46:19;4.28;;;0.77;;
71048;SDS011;58704;53.358;-6.238;2022-10-15T06:48:44;4.00;;;0.90;;
71048;SDS011;58704;53.358;-6.238;2022-10-15T06:51:09;5.67;;;1.20;;
71048;SDS011;58704;53.358;-6.238;2022-10-15T06:53:35;9.37;;;1.27;;
71048;SDS011;58704;53.358;-6.238;2022-10-15T06:56:01;4.82;;;1.00;;
71048;SDS011;58704;53.358;-6.238;2022-10-15T06:58:27;5.10;;;1.17;;
71048;SDS011;58704;53.358;-6.238;2022-10-15T07:00:58;3.47;;;1.17;;
71048;SDS011;58704;53.358;-6.238;2022-10-15T07:03:24;3.23;;;0.97;;
71048;SDS011;58704;53.358;-6.238;2022-10-15T07:05:49;4.55;;;1.13;;
71048;SDS011;58704;53.358;-6.238;2022-10-15T07:08:15;7.90;;;1.30;;
71048;SDS011;58704;53.358;-6.238;2022-10-15T07:10:40;4.33;;;1.00;;
71048;SDS011;58704;53.358;-6.238;2022-10-15T07:13:05;4.67;;;0.90;;
71048;SDS011;58704;53.358;-6.238;2022-10-15T07:15:31;4.23;;;0.83;;
71048;SDS011;58704;53.358;-6.238;2022-10-15T07:17:57;2.65;;;0.70;;
71048;SDS011;58704;53.358;-6.238;2022-10-15T07:20:26;7.45;;;1.10;;
71048;SDS011;58704;53.358;-6.238;2022-10-15T07:22:56;8.80;;;1.63;;
71048;SDS011;58704;53.358;-6.238;2022-10-15T07:25:23;6.50;;;1.23;;
71048;SDS011;58704;53.358;-6.238;2022-10-15T07:27:48;2.97;;;0.90;;
71048;SDS011;58704;53.358;-6.238;2022-10-15T07:30:14;3.63;;;0.87;;
71048;SDS011;58704;53.358;-6.238;2022-10-15T07:32:39;8.53;;;1.40;;
71048;SDS011;58704;53.358;-6.238;2022-10-15T07:35:05;4.20;;;1.27;;
71048;SDS011;58704;53.358;-6.238;2022-10-15T07:37:30;2.20;;;0.80;;
71048;SDS011;58704;53.358;-6.238;2022-10-15T07:39:56;6.60;;;1.20;;
71048;SDS011;58704;53.358;-6.238;2022-10-15T07:42:21;4.27;;;1.00;;
71048;SDS011;58704;53.358;-6.238;2022-10-15T07:44:47;5.53;;;1.37;;
71048;SDS011;58704;53.358;-6.238;2022-10-15T07:47:12;4.83;;;1.00;;
71048;SDS011;58704;53.358;-6.238;2022-10-15T07:49:37;6.03;;;1.47;;
71048;SDS011;58704;53.358;-6.238;2022-10-15T07:52:03;7.27;;;1.20;;
71048;SDS011;58704;53.358;-6.238;2022-10-15T07:54:31;6.77;;;1.10;;
71048;SDS011;58704;53.358;-6.238;2022-10-15T07:56:56;5.30;;;1.27;;
71048;SDS011;58704;53.358;-6.238;2022-10-15T07:59:22;5.67;;;1.30;;
71048;SDS011;58704;53.358;-6.238;2022-10-15T08:01:47;11.38;;;1.80;;
71048;SDS011;58704;53.358;-6.238;2022-10-15T08:04:15;7.70;;;1.50;;
71048;SDS011;58704;53.358;-6.238;2022-10-15T08:06:40;5.38;;;1.40;;
71048;SDS011;58704;53.358;-6.238;2022-10-15T08:09:07;6.03;;;1.37;;
71048;SDS011;58704;53.358;-6.238;2022-10-15T08:11:32;8.10;;;1.38;;
71048;SDS011;58704;53.358;-6.238;2022-10-15T08:13:58;4.47;;;1.23;;
71048;SDS011;58704;53.358;-6.238;2022-10-15T08:16:23;8.60;;;1.47;;
71048;SDS011;58704;53.358;-6.238;2022-10-15T08:18:49;4.57;;;1.30;;
71048;SDS011;58704;53.358;-6.238;2022-10-15T08:21:14;8.35;;;1.55;;
71048;SDS011;58704;53.358;-6.238;2022-10-15T08:23:40;6.60;;;1.50;;
71048;SDS011;58704;53.358;-6.238;2022-10-15T08:26:05;5.07;;;1.70;;
71048;SDS011;58704;53.358;-6.238;2022-10-15T08:28:31;10.45;;;1.70;;
71048;SDS011;58704;53.358;-6.238;2022-10-15T08:30:57;7.17;;;1.70;;
71048;SDS011;58704;53.358;-6.238;2022-10-15T08:33:24;8.30;;;1.30;;
71048;SDS011;58704;53.358;-6.238;2022-10-15T08:35:49;4.10;;;1.08;;
71048;SDS011;58704;53.358;-6.238;2022-10-15T08:38:15;6.70;;;2.03;;
71048;SDS011;58704;53.358;-6.238;2022-10-15T08:40:41;6.97;;;1.30;;
71048;SDS011;58704;53.358;-6.238;2022-10-15T08:43:18;5.18;;;1.77;;
71048;SDS011;58704;53.358;-6.238;2022-10-15T08:45:47;8.43;;;1.50;;
71048;SDS011;58704;53.358;-6.238;2022-10-15T08:48:15;3.72;;;1.00;;
71048;SDS011;58704;53.358;-6.238;2022-10-15T08:53:43;11.07;;;1.58;;
71048;SDS011;58704;53.358;-6.238;2022-10-15T08:56:18;8.45;;;1.55;;
71048;SDS011;58704;53.358;-6.238;2022-10-15T09:07:06;12.00;;;2.00;;
71048;SDS011;58704;53.358;-6.238;2022-10-15T09:15:04;9.95;;;2.22;;
71048;SDS011;58704;53.358;-6.238;2022-10-15T09:17:34;13.17;;;2.63;;
71048;SDS011;58704;53.358;-6.238;2022-10-15T09:20:03;9.27;;;2.00;;
71048;SDS011;58704;53.358;-6.238;2022-10-15T09:22:30;13.20;;;2.58;;
71048;SDS011;58704;53.358;-6.238;2022-10-15T09:24:58;12.48;;;2.17;;
71048;SDS011;58704;53.358;-6.238;2022-10-15T09:27:33;21.88;;;2.80;;
71048;SDS011;58704;53.358;-6.238;2022-10-15T09:33:02;12.55;;;1.92;;
71048;SDS011;58704;53.358;-6.238;2022-10-15T09:35:33;12.85;;;2.13;;
71048;SDS011;58704;53.358;-6.238;2022-10-15T09:43:42;10.23;;;1.93;;
71048;SDS011;58704;53.358;-6.238;2022-10-15T09:46:10;17.98;;;3.03;;
71048;SDS011;58704;53.358;-6.238;2022-10-15T09:48:40;13.68;;;2.08;;
71048;SDS011;58704;53.358;-6.238;2022-10-15T09:51:22;12.10;;;2.47;;
71048;SDS011;58704;53.358;-6.238;2022-10-15T09:54:04;9.07;;;2.22;;
71048;SDS011;58704;53.358;-6.238;2022-10-15T09:56:39;7.90;;;2.07;;
71048;SDS011;58704;53.358;-6.238;2022-10-15T09:59:10;9.95;;;1.65;;
71048;SDS011;58704;53.358;-6.238;2022-10-15T10:01:40;12.98;;;2.13;;
71048;SDS011;58704;53.358;-6.238;2022-10-15T10:04:33;6.15;;;1.75;;
71048;SDS011;58704;53.358;-6.238;2022-10-15T10:07:02;7.05;;;1.63;;
71048;SDS011;58704;53.358;-6.238;2022-10-15T10:09:32;8.10;;;1.67;;
71048;SDS011;58704;53.358;-6.238;2022-10-15T10:12:04;7.10;;;1.70;;
71048;SDS011;58704;53.358;-6.238;2022-10-15T10:14:45;4.55;;;1.48;;
71048;SDS011;58704;53.358;-6.238;2022-10-15T10:17:25;6.30;;;1.67;;
71048;SDS011;58704;53.358;-6.238;2022-10-15T10:27:48;5.35;;;1.35;;
71048;SDS011;58704;53.358;-6.238;2022-10-15T10:30:14;8.83;;;1.40;;
71048;SDS011;58704;53.358;-6.238;2022-10-15T10:32:39;5.53;;;1.23;;
71048;SDS011;58704;53.358;-6.238;2022-10-15T10:35:05;8.15;;;1.70;;
71048;SDS011;58704;53.358;-6.238;2022-10-15T10:37:44;6.70;;;1.80;;
71048;SDS011;58704;53.358;-6.238;2022-10-15T10:48:39;7.45;;;1.55;;
71048;SDS011;58704;53.358;-6.238;2022-10-15T10:53:54;6.78;;;1.52;;
71048;SDS011;58704;53.358;-6.238;2022-10-15T10:56:24;5.38;;;1.38;;
71048;SDS011;58704;53.358;-6.238;2022-10-15T10:58:59;5.03;;;1.48;;
71048;SDS011;58704;53.358;-6.238;2022-10-15T11:01:27;5.72;;;1.55;;
71048;SDS011;58704;53.358;-6.238;2022-10-15T11:03:53;6.83;;;2.60;;
71048;SDS011;58704;53.358;-6.238;2022-10-15T11:06:29;5.05;;;1.60;;
71048;SDS011;58704;53.358;-6.238;2022-10-15T11:11:52;5.35;;;1.10;;
71048;SDS011;58704;53.358;-6.238;2022-10-15T11:22:16;4.40;;;1.43;;
71048;SDS011;58704;53.358;-6.238;2022-10-15T11:33:24;5.50;;;1.70;;
71048;SDS011;58704;53.358;-6.238;2022-10-15T11:36:21;3.17;;;1.33;;
71048;SDS011;58704;53.358;-6.238;2022-10-15T11:52:00;4.63;;;1.27;;
71048;SDS011;58704;53.358;-6.238;2022-10-15T11:57:10;6.43;;;1.60;;
71048;SDS011;58704;53.358;-6.238;2022-10-15T11:59:48;6.55;;;1.50;;
71048;SDS011;58704;53.358;-6.238;2022-10-15T12:07:17;8.10;;;2.28;;
71048;SDS011;58704;53.358;-6.238;2022-10-15T12:09:48;9.93;;;1.92;;
71048;SDS011;58704;53.358;-6.238;2022-10-15T12:15:10;5.80;;;1.80;;
71048;SDS011;58704;53.358;-6.238;2022-10-15T12:24:00;8.90;;;2.63;;
71048;SDS011;58704;53.358;-6.238;2022-10-15T12:26:32;13.65;;;2.58;;
71048;SDS011;58704;53.358;-6.238;2022-10-15T12:29:17;8.87;;;2.57;;
71048;SDS011;58704;53.358;-6.238;2022-10-15T12:31:46;7.50;;;2.10;;
71048;SDS011;58704;53.358;-6.238;2022-10-15T12:34:28;7.32;;;2.13;;
71048;SDS011;58704;53.358;-6.238;2022-10-15T12:37:05;8.32;;;2.30;;
71048;SDS011;58704;53.358;-6.238;2022-10-15T12:39:42;6.80;;;1.65;;
71048;SDS011;58704;53.358;-6.238;2022-10-15T12:42:51;8.63;;;2.30;;
71048;SDS011;58704;53.358;-6.238;2022-10-15T12:44:59;8.05;;;2.25;;
71048;SDS011;58704;53.358;-6.238;2022-10-15T12:50:21;17.05;;;2.47;;
71048;SDS011;58704;53.358;-6.238;2022-10-15T12:52:51;8.80;;;1.80;;
71048;SDS011;58704;53.358;-6.238;2022-10-15T12:55:20;6.03;;;1.50;;
71048;SDS011;58704;53.358;-6.238;2022-10-15T12:57:54;6.22;;;1.95;;
71048;SDS011;58704;53.358;-6.238;2022-10-15T13:00:31;5.35;;;1.60;;
71048;SDS011;58704;53.358;-6.238;2022-10-15T13:03:07;9.43;;;1.80;;
71048;SDS011;58704;53.358;-6.238;2022-10-15T13:11:17;6.70;;;1.97;;
71048;SDS011;58704;53.358;-6.238;2022-10-15T13:13:43;4.85;;;1.45;;
71048;SDS011;58704;53.358;-6.238;2022-10-15T13:16:10;3.80;;;1.30;;
71048;SDS011;58704;53.358;-6.238;2022-10-15T13:18:37;4.38;;;1.15;;
71048;SDS011;58704;53.358;-6.238;2022-10-15T13:21:03;3.65;;;1.52;;
71048;SDS011;58704;53.358;-6.238;2022-10-15T13:23:29;2.97;;;1.47;;
71048;SDS011;58704;53.358;-6.238;2022-10-15T13:28:40;4.32;;;1.77;;
71048;SDS011;58704;53.358;-6.238;2022-10-15T13:31:53;3.23;;;1.40;;
71048;SDS011;58704;53.358;-6.238;2022-10-15T13:33:54;4.53;;;1.95;;
71048;SDS011;58704;53.358;-6.238;2022-10-15T13:36:30;4.65;;;2.03;;
71048;SDS011;58704;53.358;-6.238;2022-10-15T13:39:02;7.10;;;1.80;;
71048;SDS011;58704;53.358;-6.238;2022-10-15T13:41:33;5.60;;;1.90;;
71048;SDS011;58704;53.358;-6.238;2022-10-15T13:44:01;4.50;;;1.97;;
71048;SDS011;58704;53.358;-6.238;2022-10-15T13:46:29;2.58;;;1.60;;
71048;SDS011;58704;53.358;-6.238;2022-10-15T13:48:57;7.68;;;2.35;;
71048;SDS011;58704;53.358;-6.238;2022-10-15T13:51:28;5.53;;;2.00;;
71048;SDS011;58704;53.358;-6.238;2022-10-15T13:53:57;12.98;;;5.70;;
71048;SDS011;58704;53.358;-6.238;2022-10-15T13:56:25;7.83;;;2.73;;
71048;SDS011;58704;53.358;-6.238;2022-10-15T13:58:52;10.80;;;5.40;;
71048;SDS011;58704;53.358;-6.238;2022-10-15T14:01:25;7.95;;;3.15;;
71048;SDS011;58704;53.358;-6.238;2022-10-15T14:03:52;6.53;;;2.85;;
71048;SDS011;58704;53.358;-6.238;2022-10-15T14:06:20;5.67;;;2.20;;
71048;SDS011;58704;53.358;-6.238;2022-10-15T14:11:25;10.88;;;3.58;;
71048;SDS011;58704;53.358;-6.238;2022-10-15T14:13:55;9.60;;;2.67;;
71048;SDS011;58704;53.358;-6.238;2022-10-15T14:18:58;7.33;;;2.60;;
71048;SDS011;58704;53.358;-6.238;2022-10-15T14:21:33;9.73;;;2.30;;
71048;SDS011;58704;53.358;-6.238;2022-10-15T14:24:06;6.80;;;1.65;;
71048;SDS011;58704;53.358;-6.238;2022-10-15T14:26:37;8.98;;;2.03;;
71048;SDS011;58704;53.358;-6.238;2022-10-15T14:29:03;5.10;;;1.83;;
71048;SDS011;58704;53.358;-6.238;2022-10-15T14:31:36;6.83;;;1.90;;
71048;SDS011;58704;53.358;-6.238;2022-10-15T14:34:03;5.05;;;1.67;;
71048;SDS011;58704;53.358;-6.238;2022-10-15T14:36:30;4.38;;;2.13;;
71048;SDS011;58704;53.358;-6.238;2022-10-15T14:42:00;5.78;;;2.00;;
71048;SDS011;58704;53.358;-6.238;2022-10-15T14:44:43;4.50;;;2.13;;
71048;SDS011;58704;53.358;-6.238;2022-10-15T14:47:21;6.00;;;2.35;;
71048;SDS011;58704;53.358;-6.238;2022-10-15T14:49:53;13.27;;;4.57;;
71048;SDS011;58704;53.358;-6.238;2022-10-15T14:52:19;9.35;;;2.28;;
71048;SDS011;58704;53.358;-6.238;2022-10-15T14:54:48;7.10;;;2.45;;
71048;SDS011;58704;53.358;-6.238;2022-10-15T14:57:31;4.73;;;1.90;;
71048;SDS011;58704;53.358;-6.238;2022-10-15T14:59:59;6.25;;;2.20;;
71048;SDS011;58704;53.358;-6.238;2022-10-15T15:02:26;9.15;;;2.00;;
71048;SDS011;58704;53.358;-6.238;2022-10-15T15:05:05;5.53;;;2.10;;
71048;SDS011;58704;53.358;-6.238;2022-10-15T15:07:38;6.90;;;2.00;;
71048;SDS011;58704;53.358;-6.238;2022-10-15T15:10:04;10.00;;;2.17;;
71048;SDS011;58704;53.358;-6.238;2022-10-15T15:12:31;7.45;;;3.22;;
71048;SDS011;58704;53.358;-6.238;2022-10-15T15:14:57;7.75;;;2.47;;
71048;SDS011;58704;53.358;-6.238;2022-10-15T15:17:24;8.57;;;3.53;;
71048;SDS011;58704;53.358;-6.238;2022-10-15T15:19:51;6.53;;;2.53;;
71048;SDS011;58704;53.358;-6.238;2022-10-15T15:22:19;8.52;;;2.50;;
71048;SDS011;58704;53.358;-6.238;2022-10-15T15:24:48;7.15;;;3.30;;
71048;SDS011;58704;53.358;-6.238;2022-10-15T15:27:20;6.50;;;3.07;;
71048;SDS011;58704;53.358;-6.238;2022-10-15T15:29:48;4.30;;;1.65;;
71048;SDS011;58704;53.358;-6.238;2022-10-15T15:32:14;5.20;;;2.40;;
71048;SDS011;58704;53.358;-6.238;2022-10-15T15:34:40;5.07;;;2.20;;
71048;SDS011;58704;53.358;-6.238;2022-10-15T15:37:27;9.10;;;2.53;;
71048;SDS011;58704;53.358;-6.238;2022-10-15T15:39:54;9.43;;;4.15;;
71048;SDS011;58704;53.358;-6.238;2022-10-15T15:42:21;6.13;;;2.40;;
71048;SDS011;58704;53.358;-6.238;2022-10-15T15:44:47;10.00;;;4.15;;
71048;SDS011;58704;53.358;-6.238;2022-10-15T15:47:13;10.90;;;6.00;;
71048;SDS011;58704;53.358;-6.238;2022-10-15T15:49:38;9.10;;;4.93;;
71048;SDS011;58704;53.358;-6.238;2022-10-15T15:52:05;11.27;;;4.97;;
71048;SDS011;58704;53.358;-6.238;2022-10-15T15:54:33;15.37;;;4.57;;
71048;SDS011;58704;53.358;-6.238;2022-10-15T15:56:58;9.30;;;2.80;;
71048;SDS011;58704;53.358;-6.238;2022-10-15T15:59:23;7.90;;;2.97;;
71048;SDS011;58704;53.358;-6.238;2022-10-15T16:01:49;30.73;;;15.27;;
71048;SDS011;58704;53.358;-6.238;2022-10-15T16:04:14;14.77;;;5.73;;
71048;SDS011;58704;53.358;-6.238;2022-10-15T16:06:41;13.70;;;5.60;;
71048;SDS011;58704;53.358;-6.238;2022-10-15T16:09:07;8.40;;;3.80;;
71048;SDS011;58704;53.358;-6.238;2022-10-15T16:11:32;11.43;;;4.60;;
71048;SDS011;58704;53.358;-6.238;2022-10-15T16:13:58;19.05;;;5.50;;
71048;SDS011;58704;53.358;-6.238;2022-10-15T16:16:24;7.90;;;2.40;;
71048;SDS011;58704;53.358;-6.238;2022-10-15T16:18:50;10.25;;;4.20;;
71048;SDS011;58704;53.358;-6.238;2022-10-15T16:21:24;10.07;;;3.90;;
71048;SDS011;58704;53.358;-6.238;2022-10-15T16:23:50;13.43;;;3.63;;
71048;SDS011;58704;53.358;-6.238;2022-10-15T16:26:16;11.63;;;5.33;;
71048;SDS011;58704;53.358;-6.238;2022-10-15T16:28:42;17.40;;;6.43;;
71048;SDS011;58704;53.358;-6.238;2022-10-15T16:33:43;7.07;;;2.25;;
71048;SDS011;58704;53.358;-6.238;2022-10-15T16:36:09;6.20;;;3.00;;
71048;SDS011;58704;53.358;-6.238;2022-10-15T16:38:34;6.73;;;2.10;;
71048;SDS011;58704;53.358;-6.238;2022-10-15T16:41:00;6.05;;;2.28;;
71048;SDS011;58704;53.358;-6.238;2022-10-15T16:43:25;9.50;;;2.10;;
71048;SDS011;58704;53.358;-6.238;2022-10-15T16:45:57;7.60;;;2.37;;
71048;SDS011;58704;53.358;-6.238;2022-10-15T16:48:23;7.13;;;2.13;;
71048;SDS011;58704;53.358;-6.238;2022-10-15T16:51:23;7.57;;;1.85;;
71048;SDS011;58704;53.358;-6.238;2022-10-15T16:53:44;6.93;;;2.30;;
71048;SDS011;58704;53.358;-6.238;2022-10-15T16:56:12;4.67;;;1.50;;
71048;SDS011;58704;53.358;-6.238;2022-10-15T16:58:39;8.13;;;1.75;;
71048;SDS011;58704;53.358;-6.238;2022-10-15T17:01:05;6.57;;;1.75;;
71048;SDS011;58704;53.358;-6.238;2022-10-15T17:03:33;7.20;;;2.30;;
71048;SDS011;58704;53.358;-6.238;2022-10-15T17:05:59;5.30;;;1.80;;
71048;SDS011;58704;53.358;-6.238;2022-10-15T17:08:27;7.80;;;1.92;;
71048;SDS011;58704;53.358;-6.238;2022-10-15T17:11:17;9.07;;;2.25;;
71048;SDS011;58704;53.358;-6.238;2022-10-15T17:13:48;11.07;;;2.75;;